sensor_id;sensor_type;location;lat;lon;timestamp;P1;durP1;ratioP1;P2;durP2;ratioP2
10920;SDS011;5513;50.580;8.818;2023-05-10T00:01:58;11.03;;;9.77;;
10920;SDS011;5513;50.580;8.818;2023-05-10T00:04:27;10.60;;;9.23;;
10920;SDS011;5513;50.580;8.818;2023-05-10T00:06:56;11.47;;;10.27;;
10920;SDS011;5513;50.580;8.818;2023-05-10T00:09:25;9.80;;;8.80;;
10920;SDS011;5513;50.580;8.818;2023-05-10T00:12:02;5.17;;;4.73;;
10920;SDS011;5513;50.580;8.818;2023-05-10T00:14:37;3.10;;;2.80;;
10920;SDS011;5513;50.580;8.818;2023-05-10T00:17:11;1.80;;;1.43;;
10920;SDS011;5513;50.580;8.818;2023-05-10T00:19:42;1.90;;;1.70;;
10920;SDS011;5513;50.580;8.818;2023-05-10T00:22:14;2.80;;;1.47;;
10920;SDS011;5513;50.580;8.818;2023-05-10T00:24:44;3.10;;;1.37;;
10920;SDS011;5513;50.580;8.818;2023-05-10T00:27:14;2.63;;;1.60;;
10920;SDS011;5513;50.580;8.818;2023-05-10T00:29:49;3.50;;;1.30;;
10920;SDS011;5513;50.580;8.818;2023-05-10T00:32:21;1.50;;;1.03;;
10920;SDS011;5513;50.580;8.818;2023-05-10T00:34:50;3.20;;;1.20;;
10920;SDS011;5513;50.580;8.818;2023-05-10T00:37:18;1.37;;;1.27;;
10920;SDS011;5513;50.580;8.818;2023-05-10T00:39:47;2.37;;;1.20;;
10920;SDS011;5513;50.580;8.818;2023-05-10T00:42:15;2.57;;;1.53;;
10920;SDS011;5513;50.580;8.818;2023-05-10T00:44:43;1.10;;;1.00;;
10920;SDS011;5513;50.580;8.818;2023-05-10T00:47:13;1.80;;;1.10;;
10920;SDS011;5513;50.580;8.818;2023-05-10T00:49:43;1.13;;;0.90;;
10920;SDS011;5513;50.580;8.818;2023-05-10T00:52:12;1.00;;;0.70;;
10920;SDS011;5513;50.580;8.818;2023-05-10T00:54:42;1.50;;;0.93;;
10920;SDS011;5513;50.580;8.818;2023-05-10T00:57:10;0.80;;;0.70;;
10920;SDS011;5513;50.580;8.818;2023-05-10T00:59:38;2.90;;;0.80;;
10920;SDS011;5513;50.580;8.818;2023-05-10T01:02:07;0.70;;;0.60;;
10920;SDS011;5513;50.580;8.818;2023-05-10T01:04:35;1.50;;;0.70;;
10920;SDS011;5513;50.580;8.818;2023-05-10T01:07:07;1.10;;;0.60;;
10920;SDS011;5513;50.580;8.818;2023-05-10T01:09:35;2.10;;;0.50;;
10920;SDS011;5513;50.580;8.818;2023-05-10T01:12:04;0.83;;;0.50;;
10920;SDS011;5513;50.580;8.818;2023-05-10T01:14:34;1.33;;;0.50;;
10920;SDS011;5513;50.580;8.818;2023-05-10T01:17:03;2.30;;;0.50;;
10920;SDS011;5513;50.580;8.818;2023-05-10T01:19:34;2.83;;;0.60;;
10920;SDS011;5513;50.580;8.818;2023-05-10T01:22:08;0.50;;;0.50;;
10920;SDS011;5513;50.580;8.818;2023-05-10T01:24:51;1.30;;;0.40;;
10920;SDS011;5513;50.580;8.818;2023-05-10T01:27:47;4.37;;;0.63;;
10920;SDS011;5513;50.580;8.818;2023-05-10T01:30:35;2.20;;;0.40;;
10920;SDS011;5513;50.580;8.818;2023-05-10T01:33:25;1.13;;;0.50;;
10920;SDS011;5513;50.580;8.818;2023-05-10T01:36:00;0.40;;;0.40;;
10920;SDS011;5513;50.580;8.818;2023-05-10T01:38:38;0.40;;;0.40;;
10920;SDS011;5513;50.580;8.818;2023-05-10T01:41:13;1.00;;;0.50;;
10920;SDS011;5513;50.580;8.818;2023-05-10T01:43:48;1.00;;;0.40;;
10920;SDS011;5513;50.580;8.818;2023-05-10T01:46:24;1.70;;;0.60;;
10920;SDS011;5513;50.580;8.818;2023-05-10T01:48:58;2.40;;;0.50;;
10920;SDS011;5513;50.580;8.818;2023-05-10T01:51:29;0.60;;;0.53;;
10920;SDS011;5513;50.580;8.818;2023-05-10T01:54:09;1.87;;;0.53;;
10920;SDS011;5513;50.580;8.818;2023-05-10T01:56:41;1.73;;;0.60;;
10920;SDS011;5513;50.580;8.818;2023-05-10T01:59:12;0.80;;;0.60;;
10920;SDS011;5513;50.580;8.818;2023-05-10T02:01:46;1.50;;;0.60;;
10920;SDS011;5513;50.580;8.818;2023-05-10T02:04:20;0.87;;;0.63;;
10920;SDS011;5513;50.580;8.818;2023-05-10T02:06:53;0.70;;;0.70;;
10920;SDS011;5513;50.580;8.818;2023-05-10T02:09:25;1.83;;;0.57;;
10920;SDS011;5513;50.580;8.818;2023-05-10T02:11:57;2.00;;;0.60;;
10920;SDS011;5513;50.580;8.818;2023-05-10T02:14:30;1.10;;;0.83;;
10920;SDS011;5513;50.580;8.818;2023-05-10T02:17:03;0.70;;;0.70;;
10920;SDS011;5513;50.580;8.818;2023-05-10T02:19:35;0.70;;;0.70;;
10920;SDS011;5513;50.580;8.818;2023-05-10T02:22:05;0.77;;;0.70;;
10920;SDS011;5513;50.580;8.818;2023-05-10T02:24:36;1.63;;;0.60;;
10920;SDS011;5513;50.580;8.818;2023-05-10T02:27:06;1.67;;;0.80;;
10920;SDS011;5513;50.580;8.818;2023-05-10T02:29:38;0.77;;;0.50;;
10920;SDS011;5513;50.580;8.818;2023-05-10T02:32:07;2.57;;;0.70;;
10920;SDS011;5513;50.580;8.818;2023-05-10T02:34:43;2.20;;;0.67;;
10920;SDS011;5513;50.580;8.818;2023-05-10T02:37:18;1.17;;;0.70;;
10920;SDS011;5513;50.580;8.818;2023-05-10T02:39:47;2.10;;;0.70;;
10920;SDS011;5513;50.580;8.818;2023-05-10T02:42:18;1.03;;;0.60;;
10920;SDS011;5513;50.580;8.818;2023-05-10T02:44:52;0.73;;;0.73;;
10920;SDS011;5513;50.580;8.818;2023-05-10T02:47:23;1.10;;;0.80;;
10920;SDS011;5513;50.580;8.818;2023-05-10T02:49:53;1.03;;;0.97;;
10920;SDS011;5513;50.580;8.818;2023-05-10T02:52:23;0.77;;;0.67;;
10920;SDS011;5513;50.580;8.818;2023-05-10T02:54:58;1.67;;;1.00;;
10920;SDS011;5513;50.580;8.818;2023-05-10T02:57:30;1.80;;;1.00;;
10920;SDS011;5513;50.580;8.818;2023-05-10T03:00:01;0.80;;;0.70;;
10920;SDS011;5513;50.580;8.818;2023-05-10T03:02:30;4.27;;;1.00;;
10920;SDS011;5513;50.580;8.818;2023-05-10T03:05:00;0.70;;;0.70;;
10920;SDS011;5513;50.580;8.818;2023-05-10T03:07:29;1.07;;;0.80;;
10920;SDS011;5513;50.580;8.818;2023-05-10T03:09:57;1.80;;;0.90;;
10920;SDS011;5513;50.580;8.818;2023-05-10T03:12:27;1.87;;;0.90;;
10920;SDS011;5513;50.580;8.818;2023-05-10T03:15:08;2.57;;;0.90;;
10920;SDS011;5513;50.580;8.818;2023-05-10T03:17:44;0.70;;;0.70;;
10920;SDS011;5513;50.580;8.818;2023-05-10T03:20:20;1.27;;;0.80;;
10920;SDS011;5513;50.580;8.818;2023-05-10T03:22:52;1.03;;;0.80;;
10920;SDS011;5513;50.580;8.818;2023-05-10T03:25:28;3.10;;;1.10;;
10920;SDS011;5513;50.580;8.818;2023-05-10T03:27:59;3.67;;;1.50;;
10920;SDS011;5513;50.580;8.818;2023-05-10T03:30:28;1.33;;;1.23;;
10920;SDS011;5513;50.580;8.818;2023-05-10T03:32:58;1.90;;;1.43;;
10920;SDS011;5513;50.580;8.818;2023-05-10T03:35:33;1.57;;;1.47;;
10920;SDS011;5513;50.580;8.818;2023-05-10T03:38:02;1.77;;;1.47;;
10920;SDS011;5513;50.580;8.818;2023-05-10T03:40:32;6.03;;;1.80;;
10920;SDS011;5513;50.580;8.818;2023-05-10T03:43:00;2.20;;;2.00;;
10920;SDS011;5513;50.580;8.818;2023-05-10T03:45:28;3.53;;;2.00;;
10920;SDS011;5513;50.580;8.818;2023-05-10T03:47:57;3.43;;;1.83;;
10920;SDS011;5513;50.580;8.818;2023-05-10T03:50:25;2.43;;;2.00;;
10920;SDS011;5513;50.580;8.818;2023-05-10T03:52:55;2.90;;;2.40;;
10920;SDS011;5513;50.580;8.818;2023-05-10T03:55:23;2.63;;;2.43;;
10920;SDS011;5513;50.580;8.818;2023-05-10T03:57:52;2.33;;;2.10;;
10920;SDS011;5513;50.580;8.818;2023-05-10T04:00:20;2.60;;;2.40;;
10920;SDS011;5513;50.580;8.818;2023-05-10T04:02:48;5.20;;;2.23;;
10920;SDS011;5513;50.580;8.818;2023-05-10T04:05:17;2.53;;;2.30;;
10920;SDS011;5513;50.580;8.818;2023-05-10T04:07:46;3.37;;;2.20;;
10920;SDS011;5513;50.580;8.818;2023-05-10T04:10:17;3.90;;;2.43;;
10920;SDS011;5513;50.580;8.818;2023-05-10T04:12:45;4.53;;;2.30;;
10920;SDS011;5513;50.580;8.818;2023-05-10T04:15:14;3.73;;;2.47;;
10920;SDS011;5513;50.580;8.818;2023-05-10T04:17:42;2.33;;;2.00;;
10920;SDS011;5513;50.580;8.818;2023-05-10T04:20:11;2.20;;;2.00;;
10920;SDS011;5513;50.580;8.818;2023-05-10T04:22:40;5.47;;;2.13;;
10920;SDS011;5513;50.580;8.818;2023-05-10T04:25:08;2.90;;;2.20;;
10920;SDS011;5513;50.580;8.818;2023-05-10T04:27:38;3.23;;;2.00;;
10920;SDS011;5513;50.580;8.818;2023-05-10T04:30:07;2.00;;;1.80;;
10920;SDS011;5513;50.580;8.818;2023-05-10T04:32:36;4.37;;;2.33;;
10920;SDS011;5513;50.580;8.818;2023-05-10T04:35:04;4.03;;;2.10;;
10920;SDS011;5513;50.580;8.818;2023-05-10T04:37:33;3.37;;;2.30;;
10920;SDS011;5513;50.580;8.818;2023-05-10T04:40:03;3.07;;;2.30;;
10920;SDS011;5513;50.580;8.818;2023-05-10T04:42:32;2.63;;;2.30;;
10920;SDS011;5513;50.580;8.818;2023-05-10T04:45:03;3.60;;;2.47;;
10920;SDS011;5513;50.580;8.818;2023-05-10T04:47:32;5.00;;;2.90;;
10920;SDS011;5513;50.580;8.818;2023-05-10T04:50:00;4.87;;;2.70;;
10920;SDS011;5513;50.580;8.818;2023-05-10T04:52:28;3.60;;;2.93;;
10920;SDS011;5513;50.580;8.818;2023-05-10T04:54:57;3.60;;;3.07;;
10920;SDS011;5513;50.580;8.818;2023-05-10T04:57:25;4.83;;;3.20;;
10920;SDS011;5513;50.580;8.818;2023-05-10T04:59:54;5.27;;;3.30;;
10920;SDS011;5513;50.580;8.818;2023-05-10T05:02:30;4.40;;;2.77;;
10920;SDS011;5513;50.580;8.818;2023-05-10T05:04:58;6.60;;;2.80;;
10920;SDS011;5513;50.580;8.818;2023-05-10T05:07:27;2.93;;;2.63;;
10920;SDS011;5513;50.580;8.818;2023-05-10T05:09:57;6.13;;;3.17;;
10920;SDS011;5513;50.580;8.818;2023-05-10T05:12:25;3.33;;;2.83;;
10920;SDS011;5513;50.580;8.818;2023-05-10T05:14:53;4.90;;;2.60;;
10920;SDS011;5513;50.580;8.818;2023-05-10T05:17:21;3.17;;;2.70;;
10920;SDS011;5513;50.580;8.818;2023-05-10T05:19:51;3.30;;;3.00;;
10920;SDS011;5513;50.580;8.818;2023-05-10T05:22:20;4.50;;;2.60;;
10920;SDS011;5513;50.580;8.818;2023-05-10T05:24:53;4.30;;;3.20;;
10920;SDS011;5513;50.580;8.818;2023-05-10T05:27:22;3.63;;;3.13;;
10920;SDS011;5513;50.580;8.818;2023-05-10T05:29:52;3.57;;;2.83;;
10920;SDS011;5513;50.580;8.818;2023-05-10T05:32:21;5.83;;;3.03;;
10920;SDS011;5513;50.580;8.818;2023-05-10T05:34:51;3.70;;;3.00;;
10920;SDS011;5513;50.580;8.818;2023-05-10T05:37:20;3.10;;;2.80;;
10920;SDS011;5513;50.580;8.818;2023-05-10T05:39:49;3.40;;;2.37;;
10920;SDS011;5513;50.580;8.818;2023-05-10T05:42:18;2.93;;;2.13;;
10920;SDS011;5513;50.580;8.818;2023-05-10T05:44:46;2.60;;;1.93;;
10920;SDS011;5513;50.580;8.818;2023-05-10T05:47:15;2.00;;;1.80;;
10920;SDS011;5513;50.580;8.818;2023-05-10T05:49:43;3.50;;;1.80;;
10920;SDS011;5513;50.580;8.818;2023-05-10T05:52:14;2.37;;;1.80;;
10920;SDS011;5513;50.580;8.818;2023-05-10T05:54:42;4.03;;;1.80;;
10920;SDS011;5513;50.580;8.818;2023-05-10T05:57:10;1.83;;;1.60;;
10920;SDS011;5513;50.580;8.818;2023-05-10T05:59:40;1.90;;;1.70;;
10920;SDS011;5513;50.580;8.818;2023-05-10T06:02:10;4.17;;;1.90;;
10920;SDS011;5513;50.580;8.818;2023-05-10T06:04:38;2.87;;;1.70;;
10920;SDS011;5513;50.580;8.818;2023-05-10T06:07:10;4.33;;;1.90;;
10920;SDS011;5513;50.580;8.818;2023-05-10T06:09:40;2.87;;;1.90;;
10920;SDS011;5513;50.580;8.818;2023-05-10T06:12:09;1.80;;;1.60;;
10920;SDS011;5513;50.580;8.818;2023-05-10T06:14:38;3.67;;;1.60;;
10920;SDS011;5513;50.580;8.818;2023-05-10T06:17:06;2.53;;;1.77;;
10920;SDS011;5513;50.580;8.818;2023-05-10T06:19:35;2.87;;;1.70;;
10920;SDS011;5513;50.580;8.818;2023-05-10T06:22:03;2.13;;;1.50;;
10920;SDS011;5513;50.580;8.818;2023-05-10T06:24:31;3.20;;;1.60;;
10920;SDS011;5513;50.580;8.818;2023-05-10T06:27:03;1.53;;;1.43;;
10920;SDS011;5513;50.580;8.818;2023-05-10T06:29:31;1.30;;;1.20;;
10920;SDS011;5513;50.580;8.818;2023-05-10T06:32:00;2.07;;;1.30;;
10920;SDS011;5513;50.580;8.818;2023-05-10T06:34:29;3.00;;;1.97;;
10920;SDS011;5513;50.580;8.818;2023-05-10T06:36:57;2.47;;;1.60;;
10920;SDS011;5513;50.580;8.818;2023-05-10T06:39:26;2.87;;;1.50;;
10920;SDS011;5513;50.580;8.818;2023-05-10T06:41:55;1.77;;;1.67;;
10920;SDS011;5513;50.580;8.818;2023-05-10T06:44:25;1.70;;;1.60;;
10920;SDS011;5513;50.580;8.818;2023-05-10T06:46:54;3.27;;;1.27;;
10920;SDS011;5513;50.580;8.818;2023-05-10T06:49:22;1.77;;;1.30;;
10920;SDS011;5513;50.580;8.818;2023-05-10T06:51:50;1.20;;;1.10;;
10920;SDS011;5513;50.580;8.818;2023-05-10T06:54:19;1.37;;;1.27;;
10920;SDS011;5513;50.580;8.818;2023-05-10T06:56:47;3.67;;;1.50;;
10920;SDS011;5513;50.580;8.818;2023-05-10T06:59:16;2.20;;;1.37;;
10920;SDS011;5513;50.580;8.818;2023-05-10T07:01:47;3.47;;;1.50;;
10920;SDS011;5513;50.580;8.818;2023-05-10T07:04:17;1.90;;;1.30;;
10920;SDS011;5513;50.580;8.818;2023-05-10T07:06:45;1.50;;;1.30;;
10920;SDS011;5513;50.580;8.818;2023-05-10T07:09:14;2.20;;;1.20;;
10920;SDS011;5513;50.580;8.818;2023-05-10T07:11:42;1.93;;;1.20;;
10920;SDS011;5513;50.580;8.818;2023-05-10T07:14:11;1.47;;;1.33;;
10920;SDS011;5513;50.580;8.818;2023-05-10T07:16:39;1.23;;;1.13;;
10920;SDS011;5513;50.580;8.818;2023-05-10T07:19:10;3.07;;;1.50;;
10920;SDS011;5513;50.580;8.818;2023-05-10T07:21:39;4.13;;;1.40;;
10920;SDS011;5513;50.580;8.818;2023-05-10T07:24:09;4.83;;;2.00;;
10920;SDS011;5513;50.580;8.818;2023-05-10T07:26:38;2.33;;;1.70;;
10920;SDS011;5513;50.580;8.818;2023-05-10T07:29:07;2.13;;;1.90;;
10920;SDS011;5513;50.580;8.818;2023-05-10T07:31:35;6.40;;;3.63;;
10920;SDS011;5513;50.580;8.818;2023-05-10T07:34:03;2.10;;;1.90;;
10920;SDS011;5513;50.580;8.818;2023-05-10T07:36:34;3.00;;;1.40;;
10920;SDS011;5513;50.580;8.818;2023-05-10T07:39:02;3.40;;;1.80;;
10920;SDS011;5513;50.580;8.818;2023-05-10T07:41:31;2.87;;;2.13;;
10920;SDS011;5513;50.580;8.818;2023-05-10T07:44:01;2.07;;;1.70;;
10920;SDS011;5513;50.580;8.818;2023-05-10T07:46:30;2.57;;;1.73;;
10920;SDS011;5513;50.580;8.818;2023-05-10T07:48:58;2.93;;;2.50;;
10920;SDS011;5513;50.580;8.818;2023-05-10T07:51:26;3.90;;;3.33;;
10920;SDS011;5513;50.580;8.818;2023-05-10T07:53:56;1.90;;;1.47;;
10920;SDS011;5513;50.580;8.818;2023-05-10T07:56:26;2.27;;;2.07;;
10920;SDS011;5513;50.580;8.818;2023-05-10T07:58:56;1.73;;;1.60;;
10920;SDS011;5513;50.580;8.818;2023-05-10T08:01:25;2.67;;;1.50;;
10920;SDS011;5513;50.580;8.818;2023-05-10T08:03:54;3.03;;;2.20;;
10920;SDS011;5513;50.580;8.818;2023-05-10T08:06:22;2.40;;;1.63;;
10920;SDS011;5513;50.580;8.818;2023-05-10T08:08:52;2.30;;;1.70;;
10920;SDS011;5513;50.580;8.818;2023-05-10T08:11:23;2.87;;;2.53;;
10920;SDS011;5513;50.580;8.818;2023-05-10T08:13:54;4.23;;;2.07;;
10920;SDS011;5513;50.580;8.818;2023-05-10T08:16:22;2.10;;;1.67;;
10920;SDS011;5513;50.580;8.818;2023-05-10T08:18:50;3.00;;;1.80;;
10920;SDS011;5513;50.580;8.818;2023-05-10T08:21:18;2.37;;;1.90;;
10920;SDS011;5513;50.580;8.818;2023-05-10T08:23:48;2.17;;;1.93;;
10920;SDS011;5513;50.580;8.818;2023-05-10T08:26:18;2.87;;;1.80;;
10920;SDS011;5513;50.580;8.818;2023-05-10T08:28:48;3.03;;;2.13;;
10920;SDS011;5513;50.580;8.818;2023-05-10T08:31:17;1.87;;;1.70;;
10920;SDS011;5513;50.580;8.818;2023-05-10T08:33:45;2.30;;;1.80;;
10920;SDS011;5513;50.580;8.818;2023-05-10T08:36:14;2.87;;;2.57;;
10920;SDS011;5513;50.580;8.818;2023-05-10T08:38:46;2.97;;;1.80;;
10920;SDS011;5513;50.580;8.818;2023-05-10T08:41:16;3.90;;;1.60;;
10920;SDS011;5513;50.580;8.818;2023-05-10T08:43:44;4.13;;;1.97;;
10920;SDS011;5513;50.580;8.818;2023-05-10T08:48:46;1.83;;;1.73;;
10920;SDS011;5513;50.580;8.818;2023-05-10T08:51:17;2.50;;;1.77;;
10920;SDS011;5513;50.580;8.818;2023-05-10T08:53:47;2.00;;;1.70;;
10920;SDS011;5513;50.580;8.818;2023-05-10T08:56:15;3.37;;;2.10;;
10920;SDS011;5513;50.580;8.818;2023-05-10T08:58:46;2.80;;;1.60;;
10920;SDS011;5513;50.580;8.818;2023-05-10T09:01:16;1.70;;;1.60;;
10920;SDS011;5513;50.580;8.818;2023-05-10T09:03:48;2.40;;;1.57;;
10920;SDS011;5513;50.580;8.818;2023-05-10T09:06:18;1.90;;;1.70;;
10920;SDS011;5513;50.580;8.818;2023-05-10T09:08:47;3.80;;;1.60;;
10920;SDS011;5513;50.580;8.818;2023-05-10T09:11:15;2.87;;;1.73;;
10920;SDS011;5513;50.580;8.818;2023-05-10T09:13:44;3.00;;;1.70;;
10920;SDS011;5513;50.580;8.818;2023-05-10T09:16:13;2.10;;;1.90;;
10920;SDS011;5513;50.580;8.818;2023-05-10T09:18:49;5.10;;;2.00;;
10920;SDS011;5513;50.580;8.818;2023-05-10T09:21:18;2.20;;;1.90;;
10920;SDS011;5513;50.580;8.818;2023-05-10T09:23:47;2.23;;;1.80;;
10920;SDS011;5513;50.580;8.818;2023-05-10T09:26:16;5.03;;;2.10;;
10920;SDS011;5513;50.580;8.818;2023-05-10T09:28:51;1.60;;;1.37;;
10920;SDS011;5513;50.580;8.818;2023-05-10T09:31:22;2.67;;;1.97;;
10920;SDS011;5513;50.580;8.818;2023-05-10T09:33:56;3.27;;;1.87;;
10920;SDS011;5513;50.580;8.818;2023-05-10T09:36:24;2.60;;;2.40;;
10920;SDS011;5513;50.580;8.818;2023-05-10T09:38:54;6.03;;;2.30;;
10920;SDS011;5513;50.580;8.818;2023-05-10T09:41:23;4.03;;;2.43;;
10920;SDS011;5513;50.580;8.818;2023-05-10T09:43:55;3.27;;;2.20;;
10920;SDS011;5513;50.580;8.818;2023-05-10T09:46:24;4.07;;;2.70;;
10920;SDS011;5513;50.580;8.818;2023-05-10T09:48:52;4.30;;;2.50;;
10920;SDS011;5513;50.580;8.818;2023-05-10T09:51:25;7.03;;;5.93;;
10920;SDS011;5513;50.580;8.818;2023-05-10T09:54:08;3.83;;;2.40;;
10920;SDS011;5513;50.580;8.818;2023-05-10T09:56:37;4.27;;;3.43;;
10920;SDS011;5513;50.580;8.818;2023-05-10T09:59:07;5.10;;;2.70;;
10920;SDS011;5513;50.580;8.818;2023-05-10T10:01:37;5.07;;;2.70;;
10920;SDS011;5513;50.580;8.818;2023-05-10T10:04:08;2.93;;;2.33;;
10920;SDS011;5513;50.580;8.818;2023-05-10T10:06:39;2.90;;;2.30;;
10920;SDS011;5513;50.580;8.818;2023-05-10T10:09:08;2.60;;;2.00;;
10920;SDS011;5513;50.580;8.818;2023-05-10T10:11:37;2.67;;;2.10;;
10920;SDS011;5513;50.580;8.818;2023-05-10T10:14:07;2.20;;;1.90;;
10920;SDS011;5513;50.580;8.818;2023-05-10T10:16:36;1.87;;;1.70;;
10920;SDS011;5513;50.580;8.818;2023-05-10T10:19:21;4.47;;;1.60;;
10920;SDS011;5513;50.580;8.818;2023-05-10T10:21:51;1.73;;;1.27;;
10920;SDS011;5513;50.580;8.818;2023-05-10T10:24:19;2.40;;;1.53;;
10920;SDS011;5513;50.580;8.818;2023-05-10T10:26:47;3.93;;;2.07;;
10920;SDS011;5513;50.580;8.818;2023-05-10T10:29:21;1.97;;;1.60;;
10920;SDS011;5513;50.580;8.818;2023-05-10T10:31:55;1.47;;;1.37;;
10920;SDS011;5513;50.580;8.818;2023-05-10T10:34:35;2.17;;;1.70;;
10920;SDS011;5513;50.580;8.818;2023-05-10T10:37:07;2.73;;;1.70;;
10920;SDS011;5513;50.580;8.818;2023-05-10T10:39:36;2.00;;;1.80;;
10920;SDS011;5513;50.580;8.818;2023-05-10T10:42:06;1.90;;;1.60;;
10920;SDS011;5513;50.580;8.818;2023-05-10T10:44:37;2.10;;;1.77;;
10920;SDS011;5513;50.580;8.818;2023-05-10T10:50:02;3.13;;;1.60;;
10920;SDS011;5513;50.580;8.818;2023-05-10T10:52:34;3.53;;;1.63;;
10920;SDS011;5513;50.580;8.818;2023-05-10T10:55:03;6.57;;;4.63;;
10920;SDS011;5513;50.580;8.818;2023-05-10T10:57:42;3.07;;;1.90;;
10920;SDS011;5513;50.580;8.818;2023-05-10T11:00:19;2.90;;;2.00;;
10920;SDS011;5513;50.580;8.818;2023-05-10T11:02:57;2.47;;;2.20;;
10920;SDS011;5513;50.580;8.818;2023-05-10T11:08:16;3.20;;;2.50;;
10920;SDS011;5513;50.580;8.818;2023-05-10T11:10:49;2.83;;;2.53;;
10920;SDS011;5513;50.580;8.818;2023-05-10T11:13:28;4.23;;;2.40;;
10920;SDS011;5513;50.580;8.818;2023-05-10T11:15:57;2.67;;;2.47;;
10920;SDS011;5513;50.580;8.818;2023-05-10T11:18:28;2.97;;;2.33;;
10920;SDS011;5513;50.580;8.818;2023-05-10T11:20:57;3.33;;;3.03;;
10920;SDS011;5513;50.580;8.818;2023-05-10T11:23:31;3.77;;;2.90;;
10920;SDS011;5513;50.580;8.818;2023-05-10T11:26:00;4.30;;;3.53;;
10920;SDS011;5513;50.580;8.818;2023-05-10T11:28:28;4.50;;;4.10;;
10920;SDS011;5513;50.580;8.818;2023-05-10T11:30:56;5.70;;;3.53;;
10920;SDS011;5513;50.580;8.818;2023-05-10T11:33:25;4.20;;;3.77;;
10920;SDS011;5513;50.580;8.818;2023-05-10T11:35:53;4.47;;;3.60;;
10920;SDS011;5513;50.580;8.818;2023-05-10T11:38:21;3.50;;;2.60;;
10920;SDS011;5513;50.580;8.818;2023-05-10T11:40:52;2.90;;;2.43;;
10920;SDS011;5513;50.580;8.818;2023-05-10T11:43:23;3.13;;;2.80;;
10920;SDS011;5513;50.580;8.818;2023-05-10T11:45:54;3.27;;;2.97;;
10920;SDS011;5513;50.580;8.818;2023-05-10T11:48:23;5.17;;;3.20;;
10920;SDS011;5513;50.580;8.818;2023-05-10T11:50:51;5.03;;;3.03;;
10920;SDS011;5513;50.580;8.818;2023-05-10T11:53:24;6.43;;;2.67;;
10920;SDS011;5513;50.580;8.818;2023-05-10T11:55:55;5.47;;;3.50;;
10920;SDS011;5513;50.580;8.818;2023-05-10T11:58:31;4.37;;;3.07;;
10920;SDS011;5513;50.580;8.818;2023-05-10T12:01:00;1.90;;;1.70;;
10920;SDS011;5513;50.580;8.818;2023-05-10T12:03:29;3.43;;;2.20;;
10920;SDS011;5513;50.580;8.818;2023-05-10T12:05:58;2.97;;;2.10;;
10920;SDS011;5513;50.580;8.818;2023-05-10T12:08:28;2.30;;;1.93;;
10920;SDS011;5513;50.580;8.818;2023-05-10T12:11:05;2.73;;;2.17;;
10920;SDS011;5513;50.580;8.818;2023-05-10T12:13:37;4.50;;;2.20;;
10920;SDS011;5513;50.580;8.818;2023-05-10T12:16:13;5.30;;;2.40;;
10920;SDS011;5513;50.580;8.818;2023-05-10T12:18:42;5.23;;;2.40;;
10920;SDS011;5513;50.580;8.818;2023-05-10T12:21:11;2.50;;;2.30;;
10920;SDS011;5513;50.580;8.818;2023-05-10T12:23:40;2.83;;;2.23;;
10920;SDS011;5513;50.580;8.818;2023-05-10T12:26:10;2.50;;;1.80;;
10920;SDS011;5513;50.580;8.818;2023-05-10T12:28:39;3.17;;;2.70;;
10920;SDS011;5513;50.580;8.818;2023-05-10T12:31:07;4.27;;;2.20;;
10920;SDS011;5513;50.580;8.818;2023-05-10T12:33:36;6.77;;;5.00;;
10920;SDS011;5513;50.580;8.818;2023-05-10T12:36:08;4.47;;;2.20;;
10920;SDS011;5513;50.580;8.818;2023-05-10T12:38:38;5.00;;;4.17;;
10920;SDS011;5513;50.580;8.818;2023-05-10T12:41:12;2.00;;;1.80;;
10920;SDS011;5513;50.580;8.818;2023-05-10T12:43:41;3.40;;;1.97;;
10920;SDS011;5513;50.580;8.818;2023-05-10T12:46:10;3.80;;;3.40;;
10920;SDS011;5513;50.580;8.818;2023-05-10T12:48:40;3.20;;;2.20;;
10920;SDS011;5513;50.580;8.818;2023-05-10T12:51:09;5.23;;;3.83;;
10920;SDS011;5513;50.580;8.818;2023-05-10T12:53:39;4.27;;;3.20;;
10920;SDS011;5513;50.580;8.818;2023-05-10T12:56:13;6.80;;;2.90;;
10920;SDS011;5513;50.580;8.818;2023-05-10T12:58:42;7.10;;;6.13;;
10920;SDS011;5513;50.580;8.818;2023-05-10T13:01:14;5.63;;;2.80;;
10920;SDS011;5513;50.580;8.818;2023-05-10T13:03:43;2.03;;;1.83;;
10920;SDS011;5513;50.580;8.818;2023-05-10T13:06:13;2.37;;;1.97;;
10920;SDS011;5513;50.580;8.818;2023-05-10T13:08:41;2.90;;;1.63;;
10920;SDS011;5513;50.580;8.818;2023-05-10T13:11:09;3.00;;;1.43;;
10920;SDS011;5513;50.580;8.818;2023-05-10T13:13:39;1.40;;;1.03;;
10920;SDS011;5513;50.580;8.818;2023-05-10T13:16:08;12.23;;;8.87;;
10920;SDS011;5513;50.580;8.818;2023-05-10T13:18:36;4.90;;;4.50;;
10920;SDS011;5513;50.580;8.818;2023-05-10T13:21:04;3.57;;;1.50;;
10920;SDS011;5513;50.580;8.818;2023-05-10T13:23:34;1.53;;;1.00;;
10920;SDS011;5513;50.580;8.818;2023-05-10T13:26:02;2.00;;;1.13;;
10920;SDS011;5513;50.580;8.818;2023-05-10T13:28:30;1.43;;;1.13;;
10920;SDS011;5513;50.580;8.818;2023-05-10T13:31:00;2.00;;;1.80;;
10920;SDS011;5513;50.580;8.818;2023-05-10T13:33:29;1.83;;;1.50;;
10920;SDS011;5513;50.580;8.818;2023-05-10T13:35:57;2.33;;;1.50;;
10920;SDS011;5513;50.580;8.818;2023-05-10T13:38:25;1.80;;;1.20;;
10920;SDS011;5513;50.580;8.818;2023-05-10T13:40:53;1.17;;;1.03;;
10920;SDS011;5513;50.580;8.818;2023-05-10T13:43:22;3.57;;;3.27;;
10920;SDS011;5513;50.580;8.818;2023-05-10T13:45:51;1.90;;;1.50;;
10920;SDS011;5513;50.580;8.818;2023-05-10T13:48:21;2.03;;;1.40;;
10920;SDS011;5513;50.580;8.818;2023-05-10T13:50:49;2.10;;;1.70;;
10920;SDS011;5513;50.580;8.818;2023-05-10T13:53:18;3.27;;;1.20;;
10920;SDS011;5513;50.580;8.818;2023-05-10T13:55:46;2.90;;;1.30;;
10920;SDS011;5513;50.580;8.818;2023-05-10T13:58:14;1.80;;;1.10;;
10920;SDS011;5513;50.580;8.818;2023-05-10T14:00:43;1.70;;;1.13;;
10920;SDS011;5513;50.580;8.818;2023-05-10T14:03:11;2.03;;;1.40;;
10920;SDS011;5513;50.580;8.818;2023-05-10T14:05:43;2.53;;;1.17;;
10920;SDS011;5513;50.580;8.818;2023-05-10T14:08:12;4.50;;;1.97;;
10920;SDS011;5513;50.580;8.818;2023-05-10T14:10:41;5.03;;;1.90;;
10920;SDS011;5513;50.580;8.818;2023-05-10T14:13:12;2.37;;;1.67;;
10920;SDS011;5513;50.580;8.818;2023-05-10T14:15:41;2.27;;;1.40;;
10920;SDS011;5513;50.580;8.818;2023-05-10T14:18:09;5.77;;;4.83;;
10920;SDS011;5513;50.580;8.818;2023-05-10T14:20:37;3.17;;;2.10;;
10920;SDS011;5513;50.580;8.818;2023-05-10T14:23:07;3.27;;;1.40;;
10920;SDS011;5513;50.580;8.818;2023-05-10T14:25:37;3.93;;;1.73;;
10920;SDS011;5513;50.580;8.818;2023-05-10T14:28:06;1.60;;;1.47;;
10920;SDS011;5513;50.580;8.818;2023-05-10T14:30:34;2.80;;;1.37;;
10920;SDS011;5513;50.580;8.818;2023-05-10T14:33:03;1.67;;;1.00;;
10920;SDS011;5513;50.580;8.818;2023-05-10T14:35:31;6.10;;;1.90;;
10920;SDS011;5513;50.580;8.818;2023-05-10T14:38:00;1.80;;;1.30;;
10920;SDS011;5513;50.580;8.818;2023-05-10T14:40:31;10.03;;;5.60;;
10920;SDS011;5513;50.580;8.818;2023-05-10T14:42:59;2.43;;;1.90;;
10920;SDS011;5513;50.580;8.818;2023-05-10T14:45:28;2.77;;;1.10;;
10920;SDS011;5513;50.580;8.818;2023-05-10T14:47:56;6.50;;;4.10;;
10920;SDS011;5513;50.580;8.818;2023-05-10T14:50:25;1.17;;;1.07;;
10920;SDS011;5513;50.580;8.818;2023-05-10T14:53:02;2.33;;;0.80;;
10920;SDS011;5513;50.580;8.818;2023-05-10T14:55:32;0.70;;;0.70;;
10920;SDS011;5513;50.580;8.818;2023-05-10T14:58:01;2.60;;;0.90;;
10920;SDS011;5513;50.580;8.818;2023-05-10T15:00:30;3.73;;;0.90;;
10920;SDS011;5513;50.580;8.818;2023-05-10T15:02:59;2.33;;;0.90;;
10920;SDS011;5513;50.580;8.818;2023-05-10T15:05:28;2.03;;;0.83;;
10920;SDS011;5513;50.580;8.818;2023-05-10T15:07:57;0.67;;;0.60;;
10920;SDS011;5513;50.580;8.818;2023-05-10T15:10:25;1.83;;;1.30;;
10920;SDS011;5513;50.580;8.818;2023-05-10T15:12:55;3.23;;;2.23;;
10920;SDS011;5513;50.580;8.818;2023-05-10T15:15:23;1.97;;;0.80;;
10920;SDS011;5513;50.580;8.818;2023-05-10T15:17:51;1.57;;;0.90;;
10920;SDS011;5513;50.580;8.818;2023-05-10T15:20:20;1.40;;;0.90;;
10920;SDS011;5513;50.580;8.818;2023-05-10T15:22:48;1.63;;;0.80;;
10920;SDS011;5513;50.580;8.818;2023-05-10T15:25:17;1.27;;;0.80;;
10920;SDS011;5513;50.580;8.818;2023-05-10T15:27:45;2.03;;;0.97;;